sensor_id;sensor_type;location;lat;lon;timestamp;temperature;humidity
29849;DHT22;16728;50.832;5.590;2022-10-16T00:00:42;15.10;99.90
29849;DHT22;16728;50.832;5.590;2022-10-16T00:03:45;15.10;99.90
29849;DHT22;16728;50.832;5.590;2022-10-16T00:06:47;15.00;99.90
29849;DHT22;16728;50.832;5.590;2022-10-16T00:09:49;15.00;99.90
29849;DHT22;16728;50.832;5.590;2022-10-16T00:12:51;15.10;99.90
29849;DHT22;16728;50.832;5.590;2022-10-16T00:15:55;15.00;99.90
29849;DHT22;16728;50.832;5.590;2022-10-16T00:18:57;15.10;99.90
29849;DHT22;16728;50.832;5.590;2022-10-16T00:21:59;15.00;99.90
29849;DHT22;16728;50.832;5.590;2022-10-16T00:25:01;15.00;99.90
29849;DHT22;16728;50.832;5.590;2022-10-16T00:28:03;15.00;99.90
29849;DHT22;16728;50.832;5.590;2022-10-16T00:31:07;15.00;99.90
29849;DHT22;16728;50.832;5.590;2022-10-16T00:34:10;15.00;99.90
29849;DHT22;16728;50.832;5.590;2022-10-16T00:37:13;15.00;99.90
29849;DHT22;16728;50.832;5.590;2022-10-16T00:40:15;15.00;99.90
29849;DHT22;16728;50.832;5.590;2022-10-16T00:46:42;14.90;99.90
29849;DHT22;16728;50.832;5.590;2022-10-16T00:49:44;15.00;99.90
29849;DHT22;16728;50.832;5.590;2022-10-16T00:52:47;14.90;99.90
29849;DHT22;16728;50.832;5.590;2022-10-16T00:55:50;14.90;99.90
29849;DHT22;16728;50.832;5.590;2022-10-16T00:58:52;14.90;99.90
29849;DHT22;16728;50.832;5.590;2022-10-16T01:01:55;14.90;99.90
29849;DHT22;16728;50.832;5.590;2022-10-16T01:04:58;14.80;99.90
29849;DHT22;16728;50.832;5.590;2022-10-16T01:08:15;14.80;99.90
29849;DHT22;16728;50.832;5.590;2022-10-16T01:19:04;14.80;99.90
29849;DHT22;16728;50.832;5.590;2022-10-16T01:22:09;14.80;99.90
29849;DHT22;16728;50.832;5.590;2022-10-16T01:25:19;14.80;99.90
29849;DHT22;16728;50.832;5.590;2022-10-16T01:28:32;14.80;99.90
29849;DHT22;16728;50.832;5.590;2022-10-16T01:31:39;14.80;99.90
29849;DHT22;16728;50.832;5.590;2022-10-16T01:34:55;14.90;99.90
29849;DHT22;16728;50.832;5.590;2022-10-16T01:38:09;14.90;99.90
29849;DHT22;16728;50.832;5.590;2022-10-16T01:41:48;14.80;99.90
29849;DHT22;16728;50.832;5.590;2022-10-16T01:45:06;14.90;99.90
29849;DHT22;16728;50.832;5.590;2022-10-16T01:48:12;14.80;99.90
29849;DHT22;16728;50.832;5.590;2022-10-16T01:51:16;14.90;99.90
29849;DHT22;16728;50.832;5.590;2022-10-16T01:54:20;14.90;99.90
29849;DHT22;16728;50.832;5.590;2022-10-16T01:57:24;14.90;99.90
29849;DHT22;16728;50.832;5.590;2022-10-16T02:00:30;14.90;99.90
29849;DHT22;16728;50.832;5.590;2022-10-16T02:03:33;14.80;99.90
29849;DHT22;16728;50.832;5.590;2022-10-16T02:06:36;14.80;99.90
29849;DHT22;16728;50.832;5.590;2022-10-16T02:09:38;14.80;99.90
29849;DHT22;16728;50.832;5.590;2022-10-16T02:12:44;14.90;99.90
29849;DHT22;16728;50.832;5.590;2022-10-16T02:15:47;14.90;99.90
29849;DHT22;16728;50.832;5.590;2022-10-16T02:18:49;14.80;99.90
29849;DHT22;16728;50.832;5.590;2022-10-16T02:22:04;14.80;99.90
29849;DHT22;16728;50.832;5.590;2022-10-16T02:25:11;14.80;99.90
29849;DHT22;16728;50.832;5.590;2022-10-16T02:28:22;14.70;99.90
29849;DHT22;16728;50.832;5.590;2022-10-16T02:31:29;14.80;99.90
29849;DHT22;16728;50.832;5.590;2022-10-16T02:34:33;14.70;99.90
29849;DHT22;16728;50.832;5.590;2022-10-16T02:37:36;14.80;99.90
29849;DHT22;16728;50.832;5.590;2022-10-16T02:40:40;14.80;99.90
29849;DHT22;16728;50.832;5.590;2022-10-16T02:43:42;14.80;99.90
29849;DHT22;16728;50.832;5.590;2022-10-16T02:46:47;14.80;99.90
29849;DHT22;16728;50.832;5.590;2022-10-16T02:49:49;14.80;99.90
29849;DHT22;16728;50.832;5.590;2022-10-16T02:52:57;14.70;99.90
29849;DHT22;16728;50.832;5.590;2022-10-16T02:55:59;14.70;99.90
29849;DHT22;16728;50.832;5.590;2022-10-16T02:59:01;14.70;99.90
29849;DHT22;16728;50.832;5.590;2022-10-16T03:02:03;14.70;99.90
29849;DHT22;16728;50.832;5.590;2022-10-16T03:05:05;14.70;99.90
29849;DHT22;16728;50.832;5.590;2022-10-16T03:08:07;14.70;99.90
29849;DHT22;16728;50.832;5.590;2022-10-16T03:11:09;14.70;99.90
29849;DHT22;16728;50.832;5.590;2022-10-16T03:14:11;14.70;99.90
29849;DHT22;16728;50.832;5.590;2022-10-16T03:17:13;14.60;99.90
29849;DHT22;16728;50.832;5.590;2022-10-16T03:20:18;14.60;99.90
29849;DHT22;16728;50.832;5.590;2022-10-16T03:23:20;14.50;99.90
29849;DHT22;16728;50.832;5.590;2022-10-16T03:26:22;14.50;99.90
29849;DHT22;16728;50.832;5.590;2022-10-16T03:29:24;14.50;99.90
29849;DHT22;16728;50.832;5.590;2022-10-16T03:32:27;14.50;99.90
29849;DHT22;16728;50.832;5.590;2022-10-16T03:35:36;14.50;99.90
29849;DHT22;16728;50.832;5.590;2022-10-16T03:38:38;14.50;99.90
29849;DHT22;16728;50.832;5.590;2022-10-16T03:41:40;14.50;99.90
29849;DHT22;16728;50.832;5.590;2022-10-16T03:44:42;14.40;99.90
29849;DHT22;16728;50.832;5.590;2022-10-16T03:47:44;14.40;99.90
29849;DHT22;16728;50.832;5.590;2022-10-16T03:50:45;14.40;99.90
29849;DHT22;16728;50.832;5.590;2022-10-16T03:54:03;14.40;99.90
29849;DHT22;16728;50.832;5.590;2022-10-16T03:57:05;14.40;99.90
29849;DHT22;16728;50.832;5.590;2022-10-16T04:00:07;14.40;99.90
29849;DHT22;16728;50.832;5.590;2022-10-16T04:03:09;14.40;99.90
29849;DHT22;16728;50.832;5.590;2022-10-16T04:06:11;14.40;99.90
29849;DHT22;16728;50.832;5.590;2022-10-16T04:09:13;14.40;99.90
29849;DHT22;16728;50.832;5.590;2022-10-16T04:12:22;14.40;99.90
29849;DHT22;16728;50.832;5.590;2022-10-16T04:15:25;14.40;99.90
29849;DHT22;16728;50.832;5.590;2022-10-16T04:18:27;14.40;99.90
29849;DHT22;16728;50.832;5.590;2022-10-16T04:21:29;14.40;99.90
29849;DHT22;16728;50.832;5.590;2022-10-16T04:24:31;14.40;99.90
29849;DHT22;16728;50.832;5.590;2022-10-16T04:27:32;14.30;99.90
29849;DHT22;16728;50.832;5.590;2022-10-16T04:30:37;14.30;99.90
29849;DHT22;16728;50.832;5.590;2022-10-16T04:33:39;14.30;99.90
29849;DHT22;16728;50.832;5.590;2022-10-16T04:36:47;14.30;99.90
29849;DHT22;16728;50.832;5.590;2022-10-16T04:39:51;14.30;99.90
29849;DHT22;16728;50.832;5.590;2022-10-16T04:42:52;14.30;99.90
29849;DHT22;16728;50.832;5.590;2022-10-16T04:45:54;14.30;99.90
29849;DHT22;16728;50.832;5.590;2022-10-16T04:48:58;14.30;99.90
29849;DHT22;16728;50.832;5.590;2022-10-16T04:51:59;14.40;99.90
29849;DHT22;16728;50.832;5.590;2022-10-16T04:55:01;14.40;99.90
29849;DHT22;16728;50.832;5.590;2022-10-16T04:58:04;14.30;99.90
29849;DHT22;16728;50.832;5.590;2022-10-16T05:01:24;14.30;99.90
29849;DHT22;16728;50.832;5.590;2022-10-16T05:04:26;14.30;99.90
29849;DHT22;16728;50.832;5.590;2022-10-16T05:07:28;14.30;99.90
29849;DHT22;16728;50.832;5.590;2022-10-16T05:10:30;14.30;99.90
29849;DHT22;16728;50.832;5.590;2022-10-16T05:13:32;14.30;99.90
29849;DHT22;16728;50.832;5.590;2022-10-16T05:16:34;14.30;99.90
29849;DHT22;16728;50.832;5.590;2022-10-16T05:19:36;14.40;99.90
29849;DHT22;16728;50.832;5.590;2022-10-16T05:22:38;14.30;99.90
29849;DHT22;16728;50.832;5.590;2022-10-16T05:25:40;14.30;99.90
29849;DHT22;16728;50.832;5.590;2022-10-16T05:28:43;14.30;99.90
29849;DHT22;16728;50.832;5.590;2022-10-16T05:31:45;14.40;99.90
29849;DHT22;16728;50.832;5.590;2022-10-16T05:34:46;14.40;99.90
29849;DHT22;16728;50.832;5.590;2022-10-16T05:37:48;14.40;99.90
29849;DHT22;16728;50.832;5.590;2022-10-16T05:40:51;14.40;99.90
29849;DHT22;16728;50.832;5.590;2022-10-16T05:43:56;14.40;99.90
29849;DHT22;16728;50.832;5.590;2022-10-16T05:47:01;14.30;99.90
29849;DHT22;16728;50.832;5.590;2022-10-16T05:50:03;14.30;99.90
29849;DHT22;16728;50.832;5.590;2022-10-16T05:53:06;14.30;99.90
29849;DHT22;16728;50.832;5.590;2022-10-16T05:56:10;14.40;99.90
29849;DHT22;16728;50.832;5.590;2022-10-16T05:59:12;14.40;99.90
29849;DHT22;16728;50.832;5.590;2022-10-16T06:02:14;14.40;99.90
29849;DHT22;16728;50.832;5.590;2022-10-16T06:05:16;14.30;99.90
29849;DHT22;16728;50.832;5.590;2022-10-16T06:08:28;14.30;99.90
29849;DHT22;16728;50.832;5.590;2022-10-16T06:11:33;14.30;99.90
29849;DHT22;16728;50.832;5.590;2022-10-16T06:14:35;14.40;99.90
29849;DHT22;16728;50.832;5.590;2022-10-16T06:17:37;14.30;99.90
29849;DHT22;16728;50.832;5.590;2022-10-16T06:20:39;14.30;99.90
29849;DHT22;16728;50.832;5.590;2022-10-16T06:23:41;14.30;99.90
29849;DHT22;16728;50.832;5.590;2022-10-16T06:26:43;14.40;99.90
29849;DHT22;16728;50.832;5.590;2022-10-16T06:29:45;14.40;99.90
29849;DHT22;16728;50.832;5.590;2022-10-16T06:32:49;14.30;99.90
29849;DHT22;16728;50.832;5.590;2022-10-16T06:35:51;14.30;99.90
29849;DHT22;16728;50.832;5.590;2022-10-16T06:38:53;14.40;99.90
29849;DHT22;16728;50.832;5.590;2022-10-16T06:41:58;14.40;99.90
29849;DHT22;16728;50.832;5.590;2022-10-16T06:45:01;14.40;99.90
29849;DHT22;16728;50.832;5.590;2022-10-16T06:48:03;14.40;99.90
29849;DHT22;16728;50.832;5.590;2022-10-16T06:54:06;14.30;99.90
29849;DHT22;16728;50.832;5.590;2022-10-16T06:57:08;14.40;99.90
29849;DHT22;16728;50.832;5.590;2022-10-16T07:00:11;14.40;99.90
29849;DHT22;16728;50.832;5.590;2022-10-16T07:03:13;14.40;99.90
29849;DHT22;16728;50.832;5.590;2022-10-16T07:06:17;14.40;99.90
29849;DHT22;16728;50.832;5.590;2022-10-16T07:09:20;14.40;99.90
29849;DHT22;16728;50.832;5.590;2022-10-16T07:12:22;14.40;99.90
29849;DHT22;16728;50.832;5.590;2022-10-16T07:15:25;14.50;99.90
29849;DHT22;16728;50.832;5.590;2022-10-16T07:18:27;14.50;99.90
29849;DHT22;16728;50.832;5.590;2022-10-16T07:21:38;14.60;99.90
29849;DHT22;16728;50.832;5.590;2022-10-16T07:24:40;14.80;99.90
29849;DHT22;16728;50.832;5.590;2022-10-16T07:27:42;14.90;99.90
29849;DHT22;16728;50.832;5.590;2022-10-16T07:30:44;15.00;99.90
29849;DHT22;16728;50.832;5.590;2022-10-16T07:33:47;15.10;99.90
29849;DHT22;16728;50.832;5.590;2022-10-16T07:36:49;15.20;99.90
29849;DHT22;16728;50.832;5.590;2022-10-16T07:39:51;15.30;99.90
29849;DHT22;16728;50.832;5.590;2022-10-16T07:42:53;15.40;99.90
29849;DHT22;16728;50.832;5.590;2022-10-16T07:45:55;15.50;99.90
29849;DHT22;16728;50.832;5.590;2022-10-16T07:49:02;15.60;99.90
29849;DHT22;16728;50.832;5.590;2022-10-16T07:52:04;15.70;99.90
29849;DHT22;16728;50.832;5.590;2022-10-16T07:55:06;15.80;99.90
29849;DHT22;16728;50.832;5.590;2022-10-16T07:58:09;15.80;99.90
29849;DHT22;16728;50.832;5.590;2022-10-16T08:01:13;15.90;99.90
29849;DHT22;16728;50.832;5.590;2022-10-16T08:04:16;16.00;99.90
29849;DHT22;16728;50.832;5.590;2022-10-16T08:07:17;16.10;99.90
29849;DHT22;16728;50.832;5.590;2022-10-16T08:10:22;16.20;99.90
29849;DHT22;16728;50.832;5.590;2022-10-16T08:13:24;16.30;99.90
29849;DHT22;16728;50.832;5.590;2022-10-16T08:16:26;16.40;99.90
29849;DHT22;16728;50.832;5.590;2022-10-16T08:19:28;16.40;99.90
29849;DHT22;16728;50.832;5.590;2022-10-16T08:22:31;16.40;99.90
29849;DHT22;16728;50.832;5.590;2022-10-16T08:25:37;16.50;99.90
29849;DHT22;16728;50.832;5.590;2022-10-16T08:28:39;16.50;99.90
29849;DHT22;16728;50.832;5.590;2022-10-16T08:31:41;16.60;99.90
29849;DHT22;16728;50.832;5.590;2022-10-16T08:34:43;16.70;99.90
29849;DHT22;16728;50.832;5.590;2022-10-16T08:37:45;16.80;99.90
29849;DHT22;16728;50.832;5.590;2022-10-16T08:40:50;16.90;99.90
29849;DHT22;16728;50.832;5.590;2022-10-16T08:44:16;16.90;99.90
29849;DHT22;16728;50.832;5.590;2022-10-16T08:47:49;16.90;99.90
29849;DHT22;16728;50.832;5.590;2022-10-16T08:50:55;17.00;99.90
29849;DHT22;16728;50.832;5.590;2022-10-16T08:54:01;17.10;99.90
29849;DHT22;16728;50.832;5.590;2022-10-16T08:57:19;17.10;99.90
29849;DHT22;16728;50.832;5.590;2022-10-16T09:00:26;17.20;99.90
29849;DHT22;16728;50.832;5.590;2022-10-16T09:06:47;17.30;99.90
29849;DHT22;16728;50.832;5.590;2022-10-16T09:13:35;17.50;99.90
29849;DHT22;16728;50.832;5.590;2022-10-16T09:16:55;17.60;99.90
29849;DHT22;16728;50.832;5.590;2022-10-16T09:23:26;17.80;99.90
29849;DHT22;16728;50.832;5.590;2022-10-16T09:26:31;17.70;99.90
29849;DHT22;16728;50.832;5.590;2022-10-16T09:29:41;17.80;99.90
29849;DHT22;16728;50.832;5.590;2022-10-16T09:32:45;17.80;99.90
29849;DHT22;16728;50.832;5.590;2022-10-16T09:35:50;17.80;99.90
29849;DHT22;16728;50.832;5.590;2022-10-16T09:39:07;17.90;99.90
29849;DHT22;16728;50.832;5.590;2022-10-16T09:42:27;18.00;99.90
29849;DHT22;16728;50.832;5.590;2022-10-16T09:45:29;18.10;99.90
29849;DHT22;16728;50.832;5.590;2022-10-16T09:48:44;18.10;99.90
29849;DHT22;16728;50.832;5.590;2022-10-16T09:51:46;17.90;99.90
29849;DHT22;16728;50.832;5.590;2022-10-16T09:54:54;17.90;99.90
29849;DHT22;16728;50.832;5.590;2022-10-16T09:57:56;17.80;99.90
29849;DHT22;16728;50.832;5.590;2022-10-16T10:01:01;17.70;99.90
29849;DHT22;16728;50.832;5.590;2022-10-16T10:07:35;17.60;99.90
29849;DHT22;16728;50.832;5.590;2022-10-16T10:10:42;17.60;99.90
29849;DHT22;16728;50.832;5.590;2022-10-16T10:13:44;17.70;99.90
29849;DHT22;16728;50.832;5.590;2022-10-16T10:16:46;17.90;99.90
29849;DHT22;16728;50.832;5.590;2022-10-16T10:19:54;17.90;99.90
29849;DHT22;16728;50.832;5.590;2022-10-16T10:22:57;17.80;99.90
29849;DHT22;16728;50.832;5.590;2022-10-16T10:32:56;18.10;99.90
29849;DHT22;16728;50.832;5.590;2022-10-16T10:36:27;18.30;99.90
29849;DHT22;16728;50.832;5.590;2022-10-16T10:50:54;18.70;99.90
29849;DHT22;16728;50.832;5.590;2022-10-16T10:54:19;18.70;99.90
29849;DHT22;16728;50.832;5.590;2022-10-16T11:07:10;18.80;99.90
29849;DHT22;16728;50.832;5.590;2022-10-16T11:10:22;18.90;99.90
29849;DHT22;16728;50.832;5.590;2022-10-16T11:13:40;18.90;99.90
29849;DHT22;16728;50.832;5.590;2022-10-16T11:17:22;18.90;99.90
29849;DHT22;16728;50.832;5.590;2022-10-16T11:20:33;19.10;99.90
29849;DHT22;16728;50.832;5.590;2022-10-16T11:26:54;19.10;99.90
29849;DHT22;16728;50.832;5.590;2022-10-16T11:29:59;19.20;99.90
29849;DHT22;16728;50.832;5.590;2022-10-16T11:36:23;19.20;99.90
29849;DHT22;16728;50.832;5.590;2022-10-16T11:39:31;19.40;99.90
29849;DHT22;16728;50.832;5.590;2022-10-16T11:42:44;19.50;99.90
29849;DHT22;16728;50.832;5.590;2022-10-16T11:45:58;19.60;99.90
29849;DHT22;16728;50.832;5.590;2022-10-16T11:49:08;19.60;99.90
29849;DHT22;16728;50.832;5.590;2022-10-16T11:52:42;19.60;99.90
29849;DHT22;16728;50.832;5.590;2022-10-16T11:55:45;19.60;99.90
29849;DHT22;16728;50.832;5.590;2022-10-16T12:02:20;19.50;99.90
29849;DHT22;16728;50.832;5.590;2022-10-16T12:09:54;19.40;99.90
29849;DHT22;16728;50.832;5.590;2022-10-16T12:12:57;19.30;99.90
29849;DHT22;16728;50.832;5.590;2022-10-16T12:19:15;19.30;99.90
29849;DHT22;16728;50.832;5.590;2022-10-16T12:22:18;19.40;99.90
29849;DHT22;16728;50.832;5.590;2022-10-16T12:25:42;19.50;99.90
29849;DHT22;16728;50.832;5.590;2022-10-16T12:28:48;19.60;99.90
29849;DHT22;16728;50.832;5.590;2022-10-16T12:31:53;19.60;99.90
29849;DHT22;16728;50.832;5.590;2022-10-16T12:35:03;19.60;99.90
29849;DHT22;16728;50.832;5.590;2022-10-16T12:41:30;19.80;99.90
29849;DHT22;16728;50.832;5.590;2022-10-16T12:44:36;19.90;99.90
29849;DHT22;16728;50.832;5.590;2022-10-16T12:47:48;19.90;99.90
29849;DHT22;16728;50.832;5.590;2022-10-16T12:50:51;19.90;99.90
29849;DHT22;16728;50.832;5.590;2022-10-16T12:54:16;19.80;99.90
29849;DHT22;16728;50.832;5.590;2022-10-16T13:04:04;19.50;99.90
29849;DHT22;16728;50.832;5.590;2022-10-16T13:14:50;19.60;99.90
29849;DHT22;16728;50.832;5.590;2022-10-16T13:18:16;19.40;99.90
29849;DHT22;16728;50.832;5.590;2022-10-16T13:21:33;19.40;99.90
29849;DHT22;16728;50.832;5.590;2022-10-16T13:30:56;19.30;99.90
29849;DHT22;16728;50.832;5.590;2022-10-16T13:34:00;19.30;99.90
29849;DHT22;16728;50.832;5.590;2022-10-16T13:37:02;19.30;99.90
29849;DHT22;16728;50.832;5.590;2022-10-16T13:40:23;19.40;99.90
29849;DHT22;16728;50.832;5.590;2022-10-16T13:43:37;19.30;99.90
29849;DHT22;16728;50.832;5.590;2022-10-16T13:46:40;19.40;99.90
29849;DHT22;16728;50.832;5.590;2022-10-16T13:49:43;19.40;99.90
29849;DHT22;16728;50.832;5.590;2022-10-16T13:52:45;19.40;99.90
29849;DHT22;16728;50.832;5.590;2022-10-16T13:59:05;19.30;99.90
29849;DHT22;16728;50.832;5.590;2022-10-16T14:05:29;19.20;99.90
29849;DHT22;16728;50.832;5.590;2022-10-16T14:08:31;19.20;99.90
29849;DHT22;16728;50.832;5.590;2022-10-16T14:11:37;19.20;99.90
29849;DHT22;16728;50.832;5.590;2022-10-16T14:14:43;19.20;99.90
29849;DHT22;16728;50.832;5.590;2022-10-16T14:17:50;19.20;99.90
29849;DHT22;16728;50.832;5.590;2022-10-16T14:20:52;19.20;99.90
29849;DHT22;16728;50.832;5.590;2022-10-16T14:23:56;19.10;99.90
29849;DHT22;16728;50.832;5.590;2022-10-16T14:26:58;19.00;99.90
29849;DHT22;16728;50.832;5.590;2022-10-16T14:30:19;18.90;99.90
29849;DHT22;16728;50.832;5.590;2022-10-16T14:33:32;18.80;99.90
29849;DHT22;16728;50.832;5.590;2022-10-16T14:36:40;18.70;99.90
29849;DHT22;16728;50.832;5.590;2022-10-16T14:39:42;18.80;99.90
29849;DHT22;16728;50.832;5.590;2022-10-16T14:42:50;18.80;99.90
29849;DHT22;16728;50.832;5.590;2022-10-16T14:45:54;18.70;99.90
29849;DHT22;16728;50.832;5.590;2022-10-16T14:49:17;18.70;99.90
29849;DHT22;16728;50.832;5.590;2022-10-16T14:52:22;18.70;99.90
29849;DHT22;16728;50.832;5.590;2022-10-16T14:55:24;18.70;99.90
29849;DHT22;16728;50.832;5.590;2022-10-16T14:58:27;18.60;99.90
29849;DHT22;16728;50.832;5.590;2022-10-16T15:01:29;18.70;99.90
29849;DHT22;16728;50.832;5.590;2022-10-16T15:04:30;18.70;99.90
29849;DHT22;16728;50.832;5.590;2022-10-16T15:07:32;18.80;99.90
29849;DHT22;16728;50.832;5.590;2022-10-16T15:10:41;18.80;99.90
29849;DHT22;16728;50.832;5.590;2022-10-16T15:13:45;18.80;99.90
29849;DHT22;16728;50.832;5.590;2022-10-16T15:16:47;18.70;99.90
29849;DHT22;16728;50.832;5.590;2022-10-16T15:19:49;18.70;99.90
29849;DHT22;16728;50.832;5.590;2022-10-16T15:22:51;18.60;99.90
29849;DHT22;16728;50.832;5.590;2022-10-16T15:25:54;18.60;99.90
29849;DHT22;16728;50.832;5.590;2022-10-16T15:28:57;18.50;99.90
29849;DHT22;16728;50.832;5.590;2022-10-16T15:31:59;18.50;99.90
29849;DHT22;16728;50.832;5.590;2022-10-16T15:35:01;18.50;99.90
29849;DHT22;16728;50.832;5.590;2022-10-16T15:38:02;18.60;99.90
29849;DHT22;16728;50.832;5.590;2022-10-16T15:41:04;18.60;99.90
29849;DHT22;16728;50.832;5.590;2022-10-16T15:44:06;18.60;99.90
29849;DHT22;16728;50.832;5.590;2022-10-16T15:47:08;18.50;99.90
29849;DHT22;16728;50.832;5.590;2022-10-16T15:50:14;18.50;99.90
29849;DHT22;16728;50.832;5.590;2022-10-16T15:53:17;18.50;99.90
29849;DHT22;16728;50.832;5.590;2022-10-16T15:56:18;18.50;99.90
29849;DHT22;16728;50.832;5.590;2022-10-16T15:59:21;18.50;99.90
29849;DHT22;16728;50.832;5.590;2022-10-16T16:02:23;18.50;99.90
29849;DHT22;16728;50.832;5.590;2022-10-16T16:05:25;18.40;99.90
29849;DHT22;16728;50.832;5.590;2022-10-16T16:08:27;18.30;99.90
29849;DHT22;16728;50.832;5.590;2022-10-16T16:11:29;18.20;99.90
29849;DHT22;16728;50.832;5.590;2022-10-16T16:14:33;18.10;99.90
29849;DHT22;16728;50.832;5.590;2022-10-16T16:17:36;18.00;99.90
29849;DHT22;16728;50.832;5.590;2022-10-16T16:20:38;18.00;99.90
29849;DHT22;16728;50.832;5.590;2022-10-16T16:23:40;17.90;99.90
29849;DHT22;16728;50.832;5.590;2022-10-16T16:26:42;17.90;99.90
29849;DHT22;16728;50.832;5.590;2022-10-16T16:29:45;17.90;99.90
29849;DHT22;16728;50.832;5.590;2022-10-16T16:32:47;18.00;99.90
29849;DHT22;16728;50.832;5.590;2022-10-16T16:35:49;18.00;99.90
29849;DHT22;16728;50.832;5.590;2022-10-16T16:38:51;18.00;99.90
29849;DHT22;16728;50.832;5.590;2022-10-16T16:41:55;17.90;99.90
29849;DHT22;16728;50.832;5.590;2022-10-16T16:44:57;17.80;99.90
29849;DHT22;16728;50.832;5.590;2022-10-16T16:47:59;17.80;99.90
29849;DHT22;16728;50.832;5.590;2022-10-16T16:51:05;17.70;99.90
29849;DHT22;16728;50.832;5.590;2022-10-16T16:54:09;17.70;99.90
29849;DHT22;16728;50.832;5.590;2022-10-16T16:57:11;17.70;99.90
29849;DHT22;16728;50.832;5.590;2022-10-16T17:00:13;17.70;99.90
29849;DHT22;16728;50.832;5.590;2022-10-16T17:03:15;17.60;99.90
29849;DHT22;16728;50.832;5.590;2022-10-16T17:06:22;17.60;99.90
29849;DHT22;16728;50.832;5.590;2022-10-16T17:09:24;17.50;99.90
29849;DHT22;16728;50.832;5.590;2022-10-16T17:12:26;17.50;99.90
29849;DHT22;16728;50.832;5.590;2022-10-16T17:15:27;17.40;99.90
29849;DHT22;16728;50.832;5.590;2022-10-16T17:18:29;17.30;99.90
29849;DHT22;16728;50.832;5.590;2022-10-16T17:21:31;17.40;99.90
29849;DHT22;16728;50.832;5.590;2022-10-16T17:24:34;17.40;99.90
29849;DHT22;16728;50.832;5.590;2022-10-16T17:27:35;17.50;99.90
29849;DHT22;16728;50.832;5.590;2022-10-16T17:30:41;17.40;99.90
29849;DHT22;16728;50.832;5.590;2022-10-16T17:33:45;17.40;99.90
29849;DHT22;16728;50.832;5.590;2022-10-16T17:36:47;17.30;99.90
29849;DHT22;16728;50.832;5.590;2022-10-16T17:39:50;17.30;99.90
29849;DHT22;16728;50.832;5.590;2022-10-16T17:42:52;17.30;99.90
29849;DHT22;16728;50.832;5.590;2022-10-16T17:45:55;17.30;99.90
29849;DHT22;16728;50.832;5.590;2022-10-16T17:48:56;17.20;99.90
29849;DHT22;16728;50.832;5.590;2022-10-16T17:51:59;17.20;99.90
29849;DHT22;16728;50.832;5.590;2022-10-16T17:55:03;17.30;99.90
29849;DHT22;16728;50.832;5.590;2022-10-16T17:58:07;17.30;99.90
29849;DHT22;16728;50.832;5.590;2022-10-16T18:01:14;17.30;99.90
29849;DHT22;16728;50.832;5.590;2022-10-16T18:04:16;17.30;99.90
29849;DHT22;16728;50.832;5.590;2022-10-16T18:07:18;17.30;99.90
29849;DHT22;16728;50.832;5.590;2022-10-16T18:10:20;17.30;99.90
29849;DHT22;16728;50.832;5.590;2022-10-16T18:13:22;17.30;99.90
29849;DHT22;16728;50.832;5.590;2022-10-16T18:16:25;17.30;99.90
29849;DHT22;16728;50.832;5.590;2022-10-16T18:19:27;17.20;99.90
29849;DHT22;16728;50.832;5.590;2022-10-16T18:22:29;17.20;99.90
29849;DHT22;16728;50.832;5.590;2022-10-16T18:25:31;17.20;99.90
29849;DHT22;16728;50.832;5.590;2022-10-16T18:28:33;17.20;99.90
29849;DHT22;16728;50.832;5.590;2022-10-16T18:31:35;17.30;99.90
29849;DHT22;16728;50.832;5.590;2022-10-16T18:34:42;17.30;99.90
29849;DHT22;16728;50.832;5.590;2022-10-16T18:37:44;17.30;99.90
29849;DHT22;16728;50.832;5.590;2022-10-16T18:40:47;17.40;99.90
29849;DHT22;16728;50.832;5.590;2022-10-16T18:43:48;17.40;99.90
29849;DHT22;16728;50.832;5.590;2022-10-16T18:46:50;17.40;99.90
29849;DHT22;16728;50.832;5.590;2022-10-16T18:49:53;17.40;99.90
29849;DHT22;16728;50.832;5.590;2022-10-16T18:52:55;17.30;99.90
29849;DHT22;16728;50.832;5.590;2022-10-16T18:55:57;17.30;99.90
29849;DHT22;16728;50.832;5.590;2022-10-16T18:59:01;17.30;99.90
29849;DHT22;16728;50.832;5.590;2022-10-16T19:02:03;17.20;99.90
29849;DHT22;16728;50.832;5.590;2022-10-16T19:05:05;17.10;99.90
29849;DHT22;16728;50.832;5.590;2022-10-16T19:08:13;17.00;99.90
29849;DHT22;16728;50.832;5.590;2022-10-16T19:11:20;17.00;99.90
29849;DHT22;16728;50.832;5.590;2022-10-16T19:14:21;17.10;99.90
29849;DHT22;16728;50.832;5.590;2022-10-16T19:17:23;17.10;99.90
29849;DHT22;16728;50.832;5.590;2022-10-16T19:20:25;17.00;99.90
29849;DHT22;16728;50.832;5.590;2022-10-16T19:23:27;17.00;99.90
29849;DHT22;16728;50.832;5.590;2022-10-16T19:26:31;16.90;99.90
29849;DHT22;16728;50.832;5.590;2022-10-16T19:29:34;16.90;99.90
29849;DHT22;16728;50.832;5.590;2022-10-16T19:32:36;16.80;99.90
29849;DHT22;16728;50.832;5.590;2022-10-16T19:35:38;16.90;99.90
29849;DHT22;16728;50.832;5.590;2022-10-16T19:38:40;16.90;99.90
29849;DHT22;16728;50.832;5.590;2022-10-16T19:41:43;16.80;99.90
29849;DHT22;16728;50.832;5.590;2022-10-16T19:44:44;16.80;99.90
29849;DHT22;16728;50.832;5.590;2022-10-16T19:47:46;16.80;99.90
29849;DHT22;16728;50.832;5.590;2022-10-16T19:50:48;16.70;99.90
29849;DHT22;16728;50.832;5.590;2022-10-16T19:53:55;16.70;99.90
29849;DHT22;16728;50.832;5.590;2022-10-16T19:56:58;16.70;99.90
29849;DHT22;16728;50.832;5.590;2022-10-16T20:00:01;16.60;99.90
29849;DHT22;16728;50.832;5.590;2022-10-16T20:03:03;16.70;99.90
29849;DHT22;16728;50.832;5.590;2022-10-16T20:06:06;16.60;99.90
29849;DHT22;16728;50.832;5.590;2022-10-16T20:09:08;16.60;99.90
29849;DHT22;16728;50.832;5.590;2022-10-16T20:12:10;16.60;99.90
29849;DHT22;16728;50.832;5.590;2022-10-16T20:15:12;16.50;99.90
29849;DHT22;16728;50.832;5.590;2022-10-16T20:18:15;16.50;99.90
29849;DHT22;16728;50.832;5.590;2022-10-16T20:21:23;16.40;99.90
29849;DHT22;16728;50.832;5.590;2022-10-16T20:24:25;16.40;99.90
29849;DHT22;16728;50.832;5.590;2022-10-16T20:27:27;16.40;99.90
29849;DHT22;16728;50.832;5.590;2022-10-16T20:30:39;16.40;99.90
29849;DHT22;16728;50.832;5.590;2022-10-16T20:33:41;16.40;99.90
29849;DHT22;16728;50.832;5.590;2022-10-16T20:36:42;16.40;99.90
29849;DHT22;16728;50.832;5.590;2022-10-16T20:39:47;16.40;99.90
29849;DHT22;16728;50.832;5.590;2022-10-16T20:42:48;16.30;99.90
29849;DHT22;16728;50.832;5.590;2022-10-16T20:46:02;16.30;99.90
29849;DHT22;16728;50.832;5.590;2022-10-16T20:49:04;16.40;99.90
29849;DHT22;16728;50.832;5.590;2022-10-16T20:52:16;16.40;99.90
29849;DHT22;16728;50.832;5.590;2022-10-16T20:55:18;16.30;99.90
29849;DHT22;16728;50.832;5.590;2022-10-16T20:58:20;16.30;99.90
29849;DHT22;16728;50.832;5.590;2022-10-16T21:01:24;16.20;99.90
29849;DHT22;16728;50.832;5.590;2022-10-16T21:04:26;16.20;99.90
29849;DHT22;16728;50.832;5.590;2022-10-16T21:07:28;16.20;99.90
29849;DHT22;16728;50.832;5.590;2022-10-16T21:10:31;16.20;99.90